sensor_id;sensor_type;location;lat;lon;timestamp;pressure;altitude;pressure_sealevel;temperature;humidity
10658;BME280;5377;43.276;26.930;2023-09-30T00:01:44;99263.56;;;19.79;50.57
10658;BME280;5377;43.276;26.930;2023-09-30T00:04:11;99267.44;;;19.88;50.57
10658;BME280;5377;43.276;26.930;2023-09-30T00:06:38;99260.06;;;19.84;50.21
10658;BME280;5377;43.276;26.930;2023-09-30T00:09:05;99264.19;;;19.86;49.94
10658;BME280;5377;43.276;26.930;2023-09-30T00:11:35;99254.44;;;19.96;49.01
10658;BME280;5377;43.276;26.930;2023-09-30T00:14:02;99253.38;;;19.97;48.81
10658;BME280;5377;43.276;26.930;2023-09-30T00:16:29;99263.47;;;20.01;49.10
10658;BME280;5377;43.276;26.930;2023-09-30T00:18:56;99264.84;;;20.04;48.91
10658;BME280;5377;43.276;26.930;2023-09-30T00:21:23;99259.16;;;20.10;49.16
10658;BME280;5377;43.276;26.930;2023-09-30T00:23:50;99262.69;;;20.11;48.87
10658;BME280;5377;43.276;26.930;2023-09-30T00:26:17;99259.44;;;20.09;48.98
10658;BME280;5377;43.276;26.930;2023-09-30T00:28:45;99260.25;;;20.09;49.08
10658;BME280;5377;43.276;26.930;2023-09-30T00:31:12;99265.91;;;20.03;49.18
10658;BME280;5377;43.276;26.930;2023-09-30T00:33:38;99259.41;;;20.04;50.61
10658;BME280;5377;43.276;26.930;2023-09-30T00:36:07;99257.47;;;19.99;49.12
10658;BME280;5377;43.276;26.930;2023-09-30T00:38:34;99263.72;;;20.00;49.61
10658;BME280;5377;43.276;26.930;2023-09-30T00:41:01;99263.72;;;20.00;49.16
10658;BME280;5377;43.276;26.930;2023-09-30T00:43:28;99263.16;;;19.98;50.08
10658;BME280;5377;43.276;26.930;2023-09-30T00:46:02;99269.69;;;19.97;50.04
10658;BME280;5377;43.276;26.930;2023-09-30T00:48:32;99266.97;;;19.97;49.90
10658;BME280;5377;43.276;26.930;2023-09-30T00:50:59;99179.16;;;19.32;50.25
10658;BME280;5377;43.276;26.930;2023-09-30T00:53:26;99270.94;;;19.84;51.18
10658;BME280;5377;43.276;26.930;2023-09-30T00:55:54;99273.88;;;19.77;52.35
10658;BME280;5377;43.276;26.930;2023-09-30T00:58:22;99275.38;;;19.63;53.08
10658;BME280;5377;43.276;26.930;2023-09-30T01:00:51;99289.19;;;19.56;53.63
10658;BME280;5377;43.276;26.930;2023-09-30T01:03:21;99266.06;;;19.54;53.93
10658;BME280;5377;43.276;26.930;2023-09-30T01:05:49;99265.13;;;19.43;54.02
10658;BME280;5377;43.276;26.930;2023-09-30T01:08:16;99269.97;;;19.41;54.16
10658;BME280;5377;43.276;26.930;2023-09-30T01:10:43;99260.94;;;19.36;54.50
10658;BME280;5377;43.276;26.930;2023-09-30T01:13:10;99254.69;;;19.35;53.78
10658;BME280;5377;43.276;26.930;2023-09-30T01:15:37;99263.88;;;19.29;53.72
10658;BME280;5377;43.276;26.930;2023-09-30T01:18:04;99239.97;;;19.04;53.70
10658;BME280;5377;43.276;26.930;2023-09-30T01:20:32;99148.34;;;18.41;53.92
10658;BME280;5377;43.276;26.930;2023-09-30T01:23:02;99274.78;;;19.07;54.13
10658;BME280;5377;43.276;26.930;2023-09-30T01:25:29;99263.84;;;19.02;54.59
10658;BME280;5377;43.276;26.930;2023-09-30T01:27:57;99262.78;;;19.03;54.27
10658;BME280;5377;43.276;26.930;2023-09-30T01:30:25;99261.13;;;19.02;54.51
10658;BME280;5377;43.276;26.930;2023-09-30T01:32:52;99264.63;;;18.97;54.40
10658;BME280;5377;43.276;26.930;2023-09-30T01:35:19;99263.25;;;18.95;54.35
10658;BME280;5377;43.276;26.930;2023-09-30T01:37:47;99261.59;;;18.94;54.38
10658;BME280;5377;43.276;26.930;2023-09-30T01:40:15;99266.81;;;19.00;54.22
10658;BME280;5377;43.276;26.930;2023-09-30T01:42:43;99259.44;;;18.96;54.54
10658;BME280;5377;43.276;26.930;2023-09-30T01:45:10;99260.56;;;19.00;53.78
10658;BME280;5377;43.276;26.930;2023-09-30T01:47:37;99258.38;;;18.97;53.56
10658;BME280;5377;43.276;26.930;2023-09-30T01:50:05;99262.78;;;19.03;53.57
10658;BME280;5377;43.276;26.930;2023-09-30T01:52:32;99247.41;;;18.87;53.66
10658;BME280;5377;43.276;26.930;2023-09-30T01:54:59;99260.47;;;18.90;53.31
10658;BME280;5377;43.276;26.930;2023-09-30T01:57:27;99240.41;;;18.91;52.91
10658;BME280;5377;43.276;26.930;2023-09-30T01:59:53;99014.50;;;17.21;53.20
10658;BME280;5377;43.276;26.930;2023-09-30T02:02:20;99255.75;;;19.07;52.47
10658;BME280;5377;43.276;26.930;2023-09-30T02:04:47;99252.81;;;19.09;52.36
10658;BME280;5377;43.276;26.930;2023-09-30T02:07:14;99011.97;;;17.53;52.64
10658;BME280;5377;43.276;26.930;2023-09-30T02:09:40;99251.16;;;19.08;52.70
10658;BME280;5377;43.276;26.930;2023-09-30T02:12:09;99261.69;;;19.04;52.61
10658;BME280;5377;43.276;26.930;2023-09-30T02:14:37;99256.28;;;19.04;52.55
10658;BME280;5377;43.276;26.930;2023-09-30T02:17:04;99256.53;;;19.02;52.44
10658;BME280;5377;43.276;26.930;2023-09-30T02:19:31;99245.00;;;18.90;52.47
10658;BME280;5377;43.276;26.930;2023-09-30T02:21:59;99251.03;;;18.97;52.99
10658;BME280;5377;43.276;26.930;2023-09-30T02:24:26;99252.94;;;18.97;53.21
10658;BME280;5377;43.276;26.930;2023-09-30T02:26:52;99258.94;;;18.99;53.23
10658;BME280;5377;43.276;26.930;2023-09-30T02:29:19;99246.94;;;18.95;52.53
10658;BME280;5377;43.276;26.930;2023-09-30T02:31:47;99237.47;;;18.97;52.57
10658;BME280;5377;43.276;26.930;2023-09-30T02:34:14;99240.69;;;18.94;52.74
10658;BME280;5377;43.276;26.930;2023-09-30T02:36:41;99243.41;;;18.94;53.03
10658;BME280;5377;43.276;26.930;2023-09-30T02:39:08;99244.44;;;18.88;52.75
10658;BME280;5377;43.276;26.930;2023-09-30T02:41:35;99239.78;;;18.84;52.99
10658;BME280;5377;43.276;26.930;2023-09-30T02:44:03;99240.78;;;18.78;53.07
10658;BME280;5377;43.276;26.930;2023-09-30T02:46:30;99241.41;;;18.85;52.80
10658;BME280;5377;43.276;26.930;2023-09-30T02:48:58;99236.81;;;18.85;52.99
10658;BME280;5377;43.276;26.930;2023-09-30T02:51:25;99240.78;;;18.78;53.02
10658;BME280;5377;43.276;26.930;2023-09-30T02:53:52;99233.16;;;18.75;53.78
10658;BME280;5377;43.276;26.930;2023-09-30T02:56:18;99242.59;;;18.72;53.39
10658;BME280;5377;43.276;26.930;2023-09-30T02:58:45;99236.56;;;18.65;53.33
10658;BME280;5377;43.276;26.930;2023-09-30T03:01:14;99234.97;;;18.69;53.32
10658;BME280;5377;43.276;26.930;2023-09-30T03:03:43;99229.13;;;18.60;53.20
10658;BME280;5377;43.276;26.930;2023-09-30T03:06:12;99222.06;;;18.59;53.51
10658;BME280;5377;43.276;26.930;2023-09-30T03:08:40;99236.19;;;18.61;53.27
10658;BME280;5377;43.276;26.930;2023-09-30T03:11:07;99228.31;;;18.60;53.30
10658;BME280;5377;43.276;26.930;2023-09-30T03:13:34;99234.75;;;18.54;53.44
10658;BME280;5377;43.276;26.930;2023-09-30T03:16:01;99201.38;;;18.31;53.64
10658;BME280;5377;43.276;26.930;2023-09-30T03:18:28;99229.03;;;18.50;53.70
10658;BME280;5377;43.276;26.930;2023-09-30T03:20:59;99234.75;;;18.54;53.70
10658;BME280;5377;43.276;26.930;2023-09-30T03:23:28;99220.66;;;18.35;53.69
10658;BME280;5377;43.276;26.930;2023-09-30T03:25:56;99228.91;;;18.40;53.68
10658;BME280;5377;43.276;26.930;2023-09-30T03:28:23;99231.78;;;18.55;53.63
10658;BME280;5377;43.276;26.930;2023-09-30T03:30:50;99231.94;;;18.65;53.31
10658;BME280;5377;43.276;26.930;2023-09-30T03:33:17;99240.00;;;18.60;53.42
10658;BME280;5377;43.276;26.930;2023-09-30T03:35:44;99235.16;;;18.62;53.10
10658;BME280;5377;43.276;26.930;2023-09-30T03:38:12;99226.50;;;18.65;53.35
10658;BME280;5377;43.276;26.930;2023-09-30T03:40:41;99209.66;;;18.63;53.13
10658;BME280;5377;43.276;26.930;2023-09-30T03:43:13;99229.44;;;18.81;53.01
10658;BME280;5377;43.276;26.930;2023-09-30T03:45:40;99228.91;;;18.84;52.25
10658;BME280;5377;43.276;26.930;2023-09-30T03:48:08;99232.00;;;18.92;52.31
10658;BME280;5377;43.276;26.930;2023-09-30T03:50:36;99226.31;;;18.94;52.36
10658;BME280;5377;43.276;26.930;2023-09-30T03:53:04;99234.44;;;18.94;52.52
10658;BME280;5377;43.276;26.930;2023-09-30T03:55:32;99226.88;;;18.96;52.22
10658;BME280;5377;43.276;26.930;2023-09-30T03:58:01;99219.00;;;18.94;52.56
10658;BME280;5377;43.276;26.930;2023-09-30T04:00:29;99230.50;;;19.07;53.05
10658;BME280;5377;43.276;26.930;2023-09-30T04:02:56;99228.94;;;19.11;52.59
10658;BME280;5377;43.276;26.930;2023-09-30T04:05:24;99230.34;;;19.13;52.74
10658;BME280;5377;43.276;26.930;2023-09-30T04:07:55;99216.19;;;19.11;52.56
10658;BME280;5377;43.276;26.930;2023-09-30T04:10:21;99227.56;;;19.08;52.57
10658;BME280;5377;43.276;26.930;2023-09-30T04:12:49;99230.84;;;19.10;52.52
10658;BME280;5377;43.276;26.930;2023-09-30T04:15:17;99236.75;;;19.07;52.86
10658;BME280;5377;43.276;26.930;2023-09-30T04:17:44;99222.53;;;18.95;52.80
10658;BME280;5377;43.276;26.930;2023-09-30T04:20:11;99216.22;;;18.89;52.99
10658;BME280;5377;43.276;26.930;2023-09-30T04:22:45;99236.19;;;19.05;52.93
10658;BME280;5377;43.276;26.930;2023-09-30T04:25:14;99241.00;;;18.98;53.39
10658;BME280;5377;43.276;26.930;2023-09-30T04:27:42;99252.19;;;19.01;53.26
10658;BME280;5377;43.276;26.930;2023-09-30T04:30:11;99233.63;;;18.93;53.54
10658;BME280;5377;43.276;26.930;2023-09-30T04:32:42;99244.91;;;19.07;53.39
10658;BME280;5377;43.276;26.930;2023-09-30T04:35:09;99240.06;;;19.09;53.73
10658;BME280;5377;43.276;26.930;2023-09-30T04:37:36;99241.25;;;19.18;53.19
10658;BME280;5377;43.276;26.930;2023-09-30T04:40:05;99249.75;;;19.27;53.21
10658;BME280;5377;43.276;26.930;2023-09-30T04:42:41;99245.63;;;19.24;52.93
10658;BME280;5377;43.276;26.930;2023-09-30T04:45:09;99253.88;;;19.35;53.59
10658;BME280;5377;43.276;26.930;2023-09-30T04:47:36;99251.47;;;19.38;52.89
10658;BME280;5377;43.276;26.930;2023-09-30T04:50:06;99242.16;;;19.29;53.11
10658;BME280;5377;43.276;26.930;2023-09-30T04:52:34;99258.63;;;19.44;52.77
10658;BME280;5377;43.276;26.930;2023-09-30T04:55:01;99256.31;;;19.58;53.39
10658;BME280;5377;43.276;26.930;2023-09-30T04:57:27;99253.09;;;19.61;52.66
10658;BME280;5377;43.276;26.930;2023-09-30T04:59:55;99252.03;;;19.67;52.55
10658;BME280;5377;43.276;26.930;2023-09-30T05:02:23;99261.72;;;19.85;51.77
10658;BME280;5377;43.276;26.930;2023-09-30T05:04:50;99256.69;;;20.04;50.59
10658;BME280;5377;43.276;26.930;2023-09-30T05:07:19;99257.59;;;20.14;50.26
10658;BME280;5377;43.276;26.930;2023-09-30T05:09:46;99256.56;;;20.25;50.30
10658;BME280;5377;43.276;26.930;2023-09-30T05:12:13;99262.88;;;20.36;49.91
10658;BME280;5377;43.276;26.930;2023-09-30T05:14:41;99265.19;;;20.49;49.00
10658;BME280;5377;43.276;26.930;2023-09-30T05:17:08;99265.22;;;20.60;49.44
10658;BME280;5377;43.276;26.930;2023-09-30T05:19:35;99248.38;;;20.68;49.50
10658;BME280;5377;43.276;26.930;2023-09-30T05:22:03;99269.41;;;20.82;49.10
10658;BME280;5377;43.276;26.930;2023-09-30T05:24:32;99263.69;;;20.84;48.36
10658;BME280;5377;43.276;26.930;2023-09-30T05:27:00;99256.09;;;20.86;47.88
10658;BME280;5377;43.276;26.930;2023-09-30T05:29:28;99268.06;;;20.85;47.66
10658;BME280;5377;43.276;26.930;2023-09-30T05:31:55;99262.88;;;20.83;47.67
10658;BME280;5377;43.276;26.930;2023-09-30T05:34:22;99266.97;;;20.86;48.36
10658;BME280;5377;43.276;26.930;2023-09-30T05:36:49;99271.91;;;20.99;48.21
10658;BME280;5377;43.276;26.930;2023-09-30T05:39:16;99274.63;;;20.94;47.68
10658;BME280;5377;43.276;26.930;2023-09-30T05:41:46;99276.25;;;20.90;47.11
10658;BME280;5377;43.276;26.930;2023-09-30T05:44:13;99282.81;;;20.99;47.16
10658;BME280;5377;43.276;26.930;2023-09-30T05:46:40;99278.47;;;21.03;47.33
10658;BME280;5377;43.276;26.930;2023-09-30T05:49:08;99282.81;;;20.99;46.79
10658;BME280;5377;43.276;26.930;2023-09-30T05:51:39;99290.16;;;21.04;46.99
10658;BME280;5377;43.276;26.930;2023-09-30T05:54:06;99284.19;;;21.07;47.08
10658;BME280;5377;43.276;26.930;2023-09-30T05:56:35;99295.69;;;21.19;46.68
10658;BME280;5377;43.276;26.930;2023-09-30T05:59:03;99292.19;;;21.34;46.61
10658;BME280;5377;43.276;26.930;2023-09-30T06:01:32;99294.41;;;21.42;46.19
10658;BME280;5377;43.276;26.930;2023-09-30T06:03:59;99298.78;;;21.53;46.23
10658;BME280;5377;43.276;26.930;2023-09-30T06:06:26;99296.63;;;21.65;45.40
10658;BME280;5377;43.276;26.930;2023-09-30T06:08:55;99299.34;;;21.70;45.20
10658;BME280;5377;43.276;26.930;2023-09-30T06:11:23;99300.72;;;21.73;44.97
10658;BME280;5377;43.276;26.930;2023-09-30T06:13:53;99302.63;;;21.83;45.40
10658;BME280;5377;43.276;26.930;2023-09-30T06:16:22;99301.00;;;21.87;45.65
10658;BME280;5377;43.276;26.930;2023-09-30T06:18:51;99299.91;;;21.77;45.54
10658;BME280;5377;43.276;26.930;2023-09-30T06:21:19;99301.56;;;21.99;45.09
10658;BME280;5377;43.276;26.930;2023-09-30T06:23:46;99303.75;;;22.07;45.00
10658;BME280;5377;43.276;26.930;2023-09-30T06:26:14;99296.66;;;22.16;44.89
10658;BME280;5377;43.276;26.930;2023-09-30T06:28:42;99304.28;;;22.19;44.59
10658;BME280;5377;43.276;26.930;2023-09-30T06:31:09;99300.47;;;22.25;44.37
10658;BME280;5377;43.276;26.930;2023-09-30T06:33:38;99306.44;;;22.37;44.32
10658;BME280;5377;43.276;26.930;2023-09-30T06:36:08;99305.94;;;22.30;44.38
10658;BME280;5377;43.276;26.930;2023-09-30T06:38:36;99303.72;;;22.37;44.30
10658;BME280;5377;43.276;26.930;2023-09-30T06:41:03;99305.88;;;22.46;44.02
10658;BME280;5377;43.276;26.930;2023-09-30T06:43:30;99282.41;;;22.45;44.16
10658;BME280;5377;43.276;26.930;2023-09-30T06:45:57;99313.78;;;22.57;44.09
10658;BME280;5377;43.276;26.930;2023-09-30T06:48:24;99297.94;;;22.64;43.72
10658;BME280;5377;43.276;26.930;2023-09-30T06:50:52;99311.31;;;22.66;44.20
10658;BME280;5377;43.276;26.930;2023-09-30T06:53:19;99306.91;;;22.75;43.99
10658;BME280;5377;43.276;26.930;2023-09-30T06:55:49;99308.25;;;22.88;44.37
10658;BME280;5377;43.276;26.930;2023-09-30T06:58:17;99300.88;;;22.93;44.03
10658;BME280;5377;43.276;26.930;2023-09-30T07:00:47;99301.28;;;23.26;44.02
10658;BME280;5377;43.276;26.930;2023-09-30T07:03:15;99286.09;;;23.49;43.99
10658;BME280;5377;43.276;26.930;2023-09-30T07:05:42;99302.06;;;23.76;42.86
10658;BME280;5377;43.276;26.930;2023-09-30T07:08:10;99298.97;;;23.87;42.30
10658;BME280;5377;43.276;26.930;2023-09-30T07:10:37;99297.25;;;24.31;41.63
10658;BME280;5377;43.276;26.930;2023-09-30T07:13:04;99300.72;;;24.89;40.70
10658;BME280;5377;43.276;26.930;2023-09-30T07:15:32;99299.22;;;25.44;39.57
10658;BME280;5377;43.276;26.930;2023-09-30T07:17:58;99075.16;;;24.37;38.58
10658;BME280;5377;43.276;26.930;2023-09-30T07:20:25;99293.53;;;26.44;38.50
10658;BME280;5377;43.276;26.930;2023-09-30T07:22:53;99286.00;;;27.18;37.17
10658;BME280;5377;43.276;26.930;2023-09-30T07:25:21;99290.53;;;27.50;36.36
10658;BME280;5377;43.276;26.930;2023-09-30T07:27:48;99290.72;;;27.53;36.10
10658;BME280;5377;43.276;26.930;2023-09-30T07:30:16;99275.91;;;27.63;35.26
10658;BME280;5377;43.276;26.930;2023-09-30T07:32:43;99288.72;;;27.81;35.29
10658;BME280;5377;43.276;26.930;2023-09-30T07:35:10;99293.63;;;28.15;34.72
10658;BME280;5377;43.276;26.930;2023-09-30T07:37:37;99294.88;;;28.63;33.58
10658;BME280;5377;43.276;26.930;2023-09-30T07:40:05;99293.69;;;28.46;33.53
10658;BME280;5377;43.276;26.930;2023-09-30T07:42:34;99281.59;;;29.13;33.60
10658;BME280;5377;43.276;26.930;2023-09-30T07:45:01;99287.38;;;29.60;32.17
10658;BME280;5377;43.276;26.930;2023-09-30T07:47:29;99295.16;;;29.58;31.92
10658;BME280;5377;43.276;26.930;2023-09-30T07:49:58;99276.28;;;29.16;31.51
10658;BME280;5377;43.276;26.930;2023-09-30T07:52:25;99272.38;;;29.35;31.43
10658;BME280;5377;43.276;26.930;2023-09-30T07:54:52;99289.19;;;28.99;31.76
10658;BME280;5377;43.276;26.930;2023-09-30T07:57:19;99289.91;;;29.22;31.86
10658;BME280;5377;43.276;26.930;2023-09-30T07:59:47;99280.16;;;29.33;31.76
10658;BME280;5377;43.276;26.930;2023-09-30T08:02:14;99290.22;;;29.29;32.46
10658;BME280;5377;43.276;26.930;2023-09-30T08:04:41;99292.94;;;29.11;32.39
10658;BME280;5377;43.276;26.930;2023-09-30T08:07:08;99287.91;;;29.13;32.10
10658;BME280;5377;43.276;26.930;2023-09-30T08:09:35;99296.06;;;28.39;32.66
10658;BME280;5377;43.276;26.930;2023-09-30T08:12:03;99279.56;;;28.17;32.83
10658;BME280;5377;43.276;26.930;2023-09-30T08:14:30;99301.84;;;27.48;33.24
10658;BME280;5377;43.276;26.930;2023-09-30T08:16:58;99238.47;;;27.40;33.59
10658;BME280;5377;43.276;26.930;2023-09-30T08:19:25;99295.03;;;27.82;33.13
10658;BME280;5377;43.276;26.930;2023-09-30T08:21:51;99296.50;;;27.65;33.14
10658;BME280;5377;43.276;26.930;2023-09-30T08:24:18;99296.72;;;28.14;32.70
10658;BME280;5377;43.276;26.930;2023-09-30T08:26:45;99254.19;;;28.29;31.98
10658;BME280;5377;43.276;26.930;2023-09-30T08:29:12;99294.66;;;28.50;32.49
10658;BME280;5377;43.276;26.930;2023-09-30T08:31:39;99284.88;;;28.44;32.30
10658;BME280;5377;43.276;26.930;2023-09-30T08:34:07;99292.31;;;28.75;31.76
10658;BME280;5377;43.276;26.930;2023-09-30T08:36:34;99283.59;;;28.42;32.22
10658;BME280;5377;43.276;26.930;2023-09-30T08:39:00;99285.13;;;28.56;32.10
10658;BME280;5377;43.276;26.930;2023-09-30T08:41:31;99279.34;;;28.36;32.05
10658;BME280;5377;43.276;26.930;2023-09-30T08:44:00;99277.00;;;28.91;31.67
10658;BME280;5377;43.276;26.930;2023-09-30T08:46:30;99270.03;;;28.94;30.64
10658;BME280;5377;43.276;26.930;2023-09-30T08:49:00;99259.72;;;29.16;30.50
10658;BME280;5377;43.276;26.930;2023-09-30T08:51:30;99273.38;;;29.73;30.30
10658;BME280;5377;43.276;26.930;2023-09-30T08:53:58;99281.00;;;30.11;29.78
10658;BME280;5377;43.276;26.930;2023-09-30T08:56:28;99261.53;;;29.81;29.27
10658;BME280;5377;43.276;26.930;2023-09-30T08:58:56;99247.22;;;30.52;28.98
10658;BME280;5377;43.276;26.930;2023-09-30T09:01:24;99255.16;;;31.72;27.39
10658;BME280;5377;43.276;26.930;2023-09-30T09:03:51;99244.63;;;31.98;26.53
10658;BME280;5377;43.276;26.930;2023-09-30T09:06:19;99255.16;;;32.74;25.85
10658;BME280;5377;43.276;26.930;2023-09-30T09:08:48;99244.06;;;32.86;25.83
10658;BME280;5377;43.276;26.930;2023-09-30T09:11:15;99256.09;;;33.03;25.32
10658;BME280;5377;43.276;26.930;2023-09-30T09:13:47;99253.31;;;33.67;24.95
10658;BME280;5377;43.276;26.930;2023-09-30T09:16:15;99256.78;;;33.92;23.93
10658;BME280;5377;43.276;26.930;2023-09-30T09:18:43;99246.91;;;35.01;23.38
10658;BME280;5377;43.276;26.930;2023-09-30T09:21:14;99253.84;;;34.92;23.02
10658;BME280;5377;43.276;26.930;2023-09-30T09:23:45;99229.31;;;34.66;23.13
10658;BME280;5377;43.276;26.930;2023-09-30T09:26:24;99243.50;;;35.08;23.33
10658;BME280;5377;43.276;26.930;2023-09-30T09:28:56;99201.31;;;34.27;23.23
10658;BME280;5377;43.276;26.930;2023-09-30T09:31:27;99214.50;;;33.71;23.75
10658;BME280;5377;43.276;26.930;2023-09-30T09:33:54;99217.88;;;33.24;23.79
10658;BME280;5377;43.276;26.930;2023-09-30T09:36:22;99229.69;;;33.21;24.56
10658;BME280;5377;43.276;26.930;2023-09-30T09:39:04;99228.78;;;34.13;23.72
10658;BME280;5377;43.276;26.930;2023-09-30T09:41:32;99242.53;;;34.53;22.83
10658;BME280;5377;43.276;26.930;2023-09-30T09:44:00;99234.16;;;34.69;22.67
10658;BME280;5377;43.276;26.930;2023-09-30T09:46:27;99238.94;;;34.84;23.09
10658;BME280;5377;43.276;26.930;2023-09-30T09:48:55;99220.59;;;34.99;22.77
10658;BME280;5377;43.276;26.930;2023-09-30T09:51:23;99216.16;;;35.14;22.68
10658;BME280;5377;43.276;26.930;2023-09-30T09:53:52;99198.13;;;35.27;22.16
10658;BME280;5377;43.276;26.930;2023-09-30T09:56:21;99177.53;;;35.70;21.62
10658;BME280;5377;43.276;26.930;2023-09-30T09:58:49;99218.19;;;35.90;21.32
10658;BME280;5377;43.276;26.930;2023-09-30T10:01:17;99201.88;;;35.15;22.34
10658;BME280;5377;43.276;26.930;2023-09-30T10:03:44;99198.72;;;35.17;21.87
10658;BME280;5377;43.276;26.930;2023-09-30T10:06:11;99210.22;;;35.15;22.05
10658;BME280;5377;43.276;26.930;2023-09-30T10:08:40;99223.28;;;35.11;21.72
10658;BME280;5377;43.276;26.930;2023-09-30T10:11:16;99218.28;;;35.20;21.49
10658;BME280;5377;43.276;26.930;2023-09-30T10:13:55;99233.47;;;34.72;21.83
10658;BME280;5377;43.276;26.930;2023-09-30T10:16:46;99206.97;;;35.48;21.84
10658;BME280;5377;43.276;26.930;2023-09-30T10:19:15;99208.75;;;35.99;20.75
10658;BME280;5377;43.276;26.930;2023-09-30T10:24:42;99197.66;;;36.44;20.91
10658;BME280;5377;43.276;26.930;2023-09-30T10:27:29;99203.72;;;37.03;19.70
10658;BME280;5377;43.276;26.930;2023-09-30T10:30:02;99158.13;;;36.42;19.80
10658;BME280;5377;43.276;26.930;2023-09-30T10:33:12;99197.66;;;36.44;20.25
10658;BME280;5377;43.276;26.930;2023-09-30T10:35:46;99190.94;;;36.26;20.17
10658;BME280;5377;43.276;26.930;2023-09-30T10:38:39;99188.44;;;36.93;19.93
10658;BME280;5377;43.276;26.930;2023-09-30T10:41:09;99196.59;;;36.52;20.33
10658;BME280;5377;43.276;26.930;2023-09-30T10:43:38;99185.16;;;36.61;20.26
10658;BME280;5377;43.276;26.930;2023-09-30T10:46:30;99185.19;;;36.15;20.62
10658;BME280;5377;43.276;26.930;2023-09-30T10:52:04;99181.34;;;36.99;19.74
10658;BME280;5377;43.276;26.930;2023-09-30T10:54:32;99181.09;;;37.11;19.86
10658;BME280;5377;43.276;26.930;2023-09-30T10:57:00;99188.28;;;36.82;19.98
10658;BME280;5377;43.276;26.930;2023-09-30T10:59:29;99175.78;;;36.04;20.70
10658;BME280;5377;43.276;26.930;2023-09-30T11:01:58;99163.94;;;36.79;19.93
10658;BME280;5377;43.276;26.930;2023-09-30T11:04:25;99183.53;;;37.13;19.74
10658;BME280;5377;43.276;26.930;2023-09-30T11:06:53;99167.88;;;36.52;19.67
10658;BME280;5377;43.276;26.930;2023-09-30T11:09:21;99159.09;;;37.06;19.50
10658;BME280;5377;43.276;26.930;2023-09-30T11:11:50;99158.47;;;37.50;19.29
10658;BME280;5377;43.276;26.930;2023-09-30T11:14:18;99130.31;;;37.02;19.50
10658;BME280;5377;43.276;26.930;2023-09-30T11:16:46;99158.16;;;36.95;19.44
10658;BME280;5377;43.276;26.930;2023-09-30T11:19:14;99144.78;;;37.11;19.45
10658;BME280;5377;43.276;26.930;2023-09-30T11:21:42;99142.34;;;37.06;19.31
10658;BME280;5377;43.276;26.930;2023-09-30T11:24:10;99155.16;;;37.41;19.09
10658;BME280;5377;43.276;26.930;2023-09-30T11:26:37;99169.06;;;36.51;19.59
10658;BME280;5377;43.276;26.930;2023-09-30T11:29:08;99144.84;;;35.86;20.04
10658;BME280;5377;43.276;26.930;2023-09-30T11:31:37;99132.41;;;36.52;19.62
10658;BME280;5377;43.276;26.930;2023-09-30T11:34:04;99143.13;;;37.07;19.51
10658;BME280;5377;43.276;26.930;2023-09-30T11:36:35;99150.03;;;37.46;19.44
10658;BME280;5377;43.276;26.930;2023-09-30T11:39:03;99147.91;;;37.06;19.06
10658;BME280;5377;43.276;26.930;2023-09-30T11:41:34;99141.00;;;37.60;18.84
10658;BME280;5377;43.276;26.930;2023-09-30T11:44:05;99136.22;;;37.61;18.79
10658;BME280;5377;43.276;26.930;2023-09-30T11:46:33;99141.34;;;36.39;19.34
10658;BME280;5377;43.276;26.930;2023-09-30T11:49:27;99147.31;;;35.72;20.14
10658;BME280;5377;43.276;26.930;2023-09-30T11:51:57;99131.13;;;36.01;20.42
10658;BME280;5377;43.276;26.930;2023-09-30T11:54:29;99142.84;;;36.33;20.17
10658;BME280;5377;43.276;26.930;2023-09-30T11:56:56;99138.13;;;36.14;19.85
10658;BME280;5377;43.276;26.930;2023-09-30T11:59:24;99135.75;;;35.31;20.44
10658;BME280;5377;43.276;26.930;2023-09-30T12:01:51;99130.06;;;35.44;20.17
10658;BME280;5377;43.276;26.930;2023-09-30T12:04:18;99116.25;;;36.16;19.74
10658;BME280;5377;43.276;26.930;2023-09-30T12:06:46;99113.78;;;36.11;19.95
10658;BME280;5377;43.276;26.930;2023-09-30T12:09:15;99120.88;;;36.80;19.05
10658;BME280;5377;43.276;26.930;2023-09-30T12:11:42;99120.00;;;37.06;18.88
10658;BME280;5377;43.276;26.930;2023-09-30T12:14:11;99106.56;;;36.85;18.52
10658;BME280;5377;43.276;26.930;2023-09-30T12:16:39;99106.28;;;37.24;18.44
10658;BME280;5377;43.276;26.930;2023-09-30T12:19:06;99096.88;;;37.43;18.84
10658;BME280;5377;43.276;26.930;2023-09-30T12:21:34;99104.19;;;37.92;18.18
10658;BME280;5377;43.276;26.930;2023-09-30T12:24:02;99106.88;;;37.10;18.33
10658;BME280;5377;43.276;26.930;2023-09-30T12:26:31;99090.34;;;37.28;18.67
10658;BME280;5377;43.276;26.930;2023-09-30T12:28:58;99103.34;;;37.47;18.24
10658;BME280;5377;43.276;26.930;2023-09-30T12:31:25;99099.09;;;37.60;18.31
10658;BME280;5377;43.276;26.930;2023-09-30T12:33:51;99098.59;;;37.17;18.17
10658;BME280;5377;43.276;26.930;2023-09-30T12:36:20;99099.44;;;37.22;18.34
10658;BME280;5377;43.276;26.930;2023-09-30T12:38:48;99092.28;;;36.64;19.02
10658;BME280;5377;43.276;26.930;2023-09-30T12:41:15;99075.13;;;36.92;18.21
10658;BME280;5377;43.276;26.930;2023-09-30T12:43:46;99026.06;;;37.25;18.30
10658;BME280;5377;43.276;26.930;2023-09-30T12:46:12;99080.22;;;37.91;18.09
10658;BME280;5377;43.276;26.930;2023-09-30T12:48:39;99090.13;;;38.29;17.52
10658;BME280;5377;43.276;26.930;2023-09-30T12:51:07;99076.44;;;37.32;18.46
10658;BME280;5377;43.276;26.930;2023-09-30T12:53:34;99069.28;;;37.38;18.26
10658;BME280;5377;43.276;26.930;2023-09-30T12:56:01;99078.06;;;37.03;18.21
10658;BME280;5377;43.276;26.930;2023-09-30T12:58:28;99069.66;;;36.73;18.13
10658;BME280;5377;43.276;26.930;2023-09-30T13:00:56;99065.19;;;35.43;19.51
10658;BME280;5377;43.276;26.930;2023-09-30T13:03:23;99066.88;;;34.70;19.73
10658;BME280;5377;43.276;26.930;2023-09-30T13:05:50;99078.53;;;34.25;20.10
10658;BME280;5377;43.276;26.930;2023-09-30T13:08:17;99063.41;;;33.91;20.38
10658;BME280;5377;43.276;26.930;2023-09-30T13:10:43;99080.50;;;33.62;20.64
10658;BME280;5377;43.276;26.930;2023-09-30T13:13:11;99056.81;;;33.36;20.87